OMDB/DXB METAR and TAF weather

Enter ICAO airport designator
Station Type Date Time Source
OMDB METAR 2022/01/25 03:00 UTC NOAA

OMDB 250300Z 19003KT 9999 FEW030 15/10 Q1017 NOSIG


Station Type Date Time Source
OMDB Decoded METAR 2022/01/25 03:00 UTC NOAA

Dubai International Airport, United Arab Emirates (OMDB) 25-15N 055-20E 5M
Jan 24, 2022 - 10:00 PM EST / 2022.01.25 0300 UTC
Wind: from the S (190 degrees) at 3 MPH (3 KT):0
Visibility: greater than 7 mile(s):0
Sky conditions: mostly clear
Temperature: 59 F (15 C)
Dew Point: 50 F (10 C)
Relative Humidity: 72%
Pressure (altimeter): 30.03 in. Hg (1017 hPa)
ob: OMDB 250300Z 19003KT 9999 FEW030 15/10 Q1017 NOSIG
cycle: 3

Station Type Date Time Source
OMDB TAF 2022/01/24 18:03 UTC NOAA

TAF OMDB 241700Z 2418/2600 30010KT CAVOK
BECMG 2418/2420 16005KT
BECMG 2507/2509 31010KT
BECMG 2517/2519 12005KT

Example: see airport list